createdAt,value
2023-04-10T00:01:35.908Z,100.00
2023-04-10T00:04:05.346Z,100.00
2023-04-10T00:06:33.856Z,100.00
2023-04-10T00:09:02.231Z,100.00
2023-04-10T00:11:31.021Z,100.00
2023-04-10T00:13:59.198Z,100.00
2023-04-10T00:16:27.494Z,100.00
2023-04-10T00:18:55.747Z,100.00
2023-04-10T00:21:24.134Z,100.00
2023-04-10T00:23:52.763Z,100.00
2023-04-10T00:26:21.297Z,100.00
2023-04-10T00:28:49.777Z,100.00
2023-04-10T00:31:18.160Z,100.00
2023-04-10T00:33:46.330Z,100.00
2023-04-10T00:36:14.769Z,100.00
2023-04-10T00:38:43.399Z,100.00
2023-04-10T00:41:11.883Z,100.00
2023-04-10T00:43:40.155Z,100.00
2023-04-10T00:46:08.498Z,100.00
2023-04-10T00:48:37.428Z,100.00
2023-04-10T00:51:06.769Z,100.00
2023-04-10T00:53:35.095Z,100.00
2023-04-10T00:56:03.656Z,100.00
2023-04-10T00:58:31.863Z,100.00
2023-04-10T01:01:00.577Z,100.00
2023-04-10T01:03:29.108Z,100.00
2023-04-10T01:06:00.789Z,100.00
2023-04-10T01:09:01.631Z,100.00
2023-04-10T01:11:53.865Z,100.00
2023-04-10T01:14:43.814Z,100.00
2023-04-10T01:17:32.339Z,100.00
2023-04-10T01:20:13.478Z,100.00
2023-04-10T01:22:41.760Z,100.00
2023-04-10T01:25:34.316Z,100.00
2023-04-10T01:28:06.008Z,100.00
2023-04-10T01:30:36.753Z,100.00
2023-04-10T01:33:10.090Z,100.00
2023-04-10T01:35:40.169Z,100.00
2023-04-10T01:38:09.720Z,100.00
2023-04-10T01:40:40.294Z,100.00
2023-04-10T01:43:11.745Z,100.00
2023-04-10T01:45:50.146Z,100.00
2023-04-10T01:48:19.314Z,100.00
2023-04-10T01:50:49.327Z,100.00
2023-04-10T01:53:18.743Z,100.00
2023-04-10T01:55:48.237Z,100.00
2023-04-10T01:58:17.746Z,100.00
2023-04-10T02:00:46.021Z,100.00
2023-04-10T02:03:15.280Z,100.00
2023-04-10T02:05:57.114Z,100.00
2023-04-10T02:08:34.616Z,100.00
2023-04-10T02:11:08.105Z,100.00
2023-04-10T02:13:39.138Z,100.00
2023-04-10T02:16:09.274Z,100.00
2023-04-10T02:18:41.338Z,100.00
2023-04-10T02:21:09.715Z,100.00
2023-04-10T02:23:38.508Z,100.00
2023-04-10T02:26:08.730Z,100.00
2023-04-10T02:28:40.492Z,100.00
2023-04-10T02:31:08.828Z,100.00
2023-04-10T02:33:37.042Z,100.00
2023-04-10T02:36:06.025Z,100.00
2023-04-10T02:38:34.231Z,100.00
2023-04-10T02:41:03.094Z,100.00
2023-04-10T02:43:31.266Z,100.00
2023-04-10T02:46:00.173Z,100.00
2023-04-10T02:48:29.769Z,100.00
2023-04-10T02:51:01.016Z,100.00
2023-04-10T02:53:30.326Z,100.00
2023-04-10T02:56:01.160Z,100.00
2023-04-10T02:58:32.710Z,100.00
2023-04-10T03:01:02.124Z,100.00
2023-04-10T03:03:40.325Z,100.00
2023-04-10T03:06:10.233Z,100.00
2023-04-10T03:08:39.025Z,100.00
2023-04-10T03:11:08.942Z,100.00
2023-04-10T03:13:37.113Z,100.00
2023-04-10T03:16:06.137Z,100.00
2023-04-10T03:18:35.005Z,100.00
2023-04-10T03:21:03.788Z,100.00
2023-04-10T03:23:32.426Z,100.00
2023-04-10T03:26:00.953Z,100.00
2023-04-10T03:28:30.972Z,100.00
2023-04-10T03:30:59.264Z,100.00
2023-04-10T03:33:28.591Z,100.00
2023-04-10T03:35:57.566Z,100.00
2023-04-10T03:38:27.270Z,100.00
2023-04-10T03:40:55.936Z,100.00
2023-04-10T03:43:25.900Z,100.00
2023-04-10T03:45:54.951Z,100.00
2023-04-10T03:48:24.354Z,100.00
2023-04-10T03:50:52.840Z,100.00
2023-04-10T03:53:21.215Z,100.00
2023-04-10T03:55:49.696Z,100.00
2023-04-10T03:58:19.501Z,100.00
2023-04-10T04:00:47.880Z,100.00
2023-04-10T04:03:23.452Z,100.00
2023-04-10T04:05:52.523Z,100.00
2023-04-10T04:08:36.491Z,100.00
2023-04-10T04:11:07.724Z,100.00
2023-04-10T04:13:54.578Z,100.00
2023-04-10T04:16:46.105Z,100.00
2023-04-10T04:19:40.750Z,100.00
2023-04-10T04:22:13.899Z,100.00
2023-04-10T04:25:00.755Z,100.00
2023-04-10T04:27:52.783Z,100.00
2023-04-10T04:30:53.520Z,100.00
2023-04-10T04:33:27.944Z,100.00
2023-04-10T04:36:28.985Z,100.00
2023-04-10T04:39:16.206Z,100.00
2023-04-10T04:42:04.759Z,100.00
2023-04-10T04:44:52.086Z,100.00
2023-04-10T04:47:39.574Z,100.00
2023-04-10T04:50:09.157Z,100.00
2023-04-10T04:52:56.208Z,100.00
2023-04-10T04:55:44.992Z,100.00
2023-04-10T04:58:33.755Z,100.00
2023-04-10T05:01:28.098Z,100.00
2023-04-10T05:04:16.936Z,100.00
2023-04-10T05:07:20.608Z,100.00
2023-04-10T05:09:48.885Z,100.00
2023-04-10T05:12:42.138Z,100.00
2023-04-10T05:15:29.289Z,100.00
2023-04-10T05:18:26.861Z,100.00
2023-04-10T05:21:03.595Z,99.57
2023-04-10T05:23:40.588Z,98.23
2023-04-10T05:26:29.335Z,96.84
2023-04-10T05:29:17.781Z,94.38
2023-04-10T05:31:57.526Z,94.72
2023-04-10T05:34:45.784Z,93.84
2023-04-10T05:37:23.776Z,93.18
2023-04-10T05:40:03.629Z,92.18
2023-04-10T05:42:43.378Z,91.86
2023-04-10T05:45:25.066Z,89.78
2023-04-10T05:48:15.877Z,87.18
2023-04-10T05:51:04.873Z,87.64
2023-04-10T05:53:38.856Z,84.57
2023-04-10T05:56:32.721Z,83.13
2023-04-10T05:59:20.045Z,81.75
2023-04-10T06:02:21.960Z,78.72
2023-04-10T06:04:51.742Z,77.41
2023-04-10T06:07:20.511Z,75.55
2023-04-10T06:09:49.013Z,75.85
2023-04-10T06:12:17.483Z,73.05
2023-04-10T06:14:47.320Z,70.70
2023-04-10T06:17:21.823Z,70.96
2023-04-10T06:19:50.284Z,69.69
2023-04-10T06:22:18.871Z,66.78
2023-04-10T06:24:47.258Z,63.31
2023-04-10T06:27:15.936Z,61.31
2023-04-10T06:29:44.521Z,59.45
2023-04-10T06:32:13.013Z,60.42
2023-04-10T06:34:42.003Z,56.48
2023-04-10T06:37:10.994Z,56.78
2023-04-10T06:39:39.581Z,55.75
2023-04-10T06:42:07.970Z,54.46
2023-04-10T06:44:55.789Z,53.99
2023-04-10T06:47:24.335Z,50.73
2023-04-10T06:49:53.059Z,52.45
2023-04-10T06:52:21.654Z,48.89
2023-04-10T06:54:49.920Z,49.13
2023-04-10T06:57:18.948Z,48.10
2023-04-10T06:59:47.190Z,47.84
2023-04-10T07:04:43.652Z,47.50
2023-04-10T07:07:13.510Z,47.78
2023-04-10T07:09:42.261Z,47.88
2023-04-10T07:12:10.622Z,45.80
2023-04-10T07:14:39.000Z,45.36
2023-04-10T07:17:07.392Z,47.33
2023-04-10T07:19:36.180Z,44.97
2023-04-10T07:22:04.444Z,41.98
2023-04-10T07:24:33.030Z,41.67
2023-04-10T07:27:01.822Z,42.42
2023-04-10T07:29:31.328Z,41.63
2023-04-10T07:31:59.718Z,42.91
2023-04-10T07:34:28.196Z,41.62
2023-04-10T07:36:56.873Z,41.45
2023-04-10T07:39:25.264Z,40.99
2023-04-10T07:41:54.960Z,39.81
2023-04-10T07:44:23.346Z,38.43
2023-04-10T07:46:52.536Z,39.82
2023-04-10T07:49:20.847Z,39.82
2023-04-10T07:51:49.100Z,39.61
2023-04-10T07:54:17.267Z,39.56
2023-04-10T07:56:45.752Z,38.27
2023-04-10T07:59:14.133Z,39.53
2023-04-10T08:01:42.341Z,39.60
2023-04-10T08:04:11.286Z,40.04
2023-04-10T08:06:39.712Z,40.36
2023-04-10T08:09:07.850Z,39.83
2023-04-10T08:11:38.244Z,39.95
2023-04-10T08:14:07.455Z,39.83
2023-04-10T08:16:37.121Z,40.64
2023-04-10T08:19:05.662Z,40.72
2023-04-10T08:21:34.043Z,39.48
2023-04-10T08:24:04.071Z,39.28
2023-04-10T08:26:32.678Z,39.82
2023-04-10T08:29:01.025Z,38.75
2023-04-10T08:31:30.044Z,39.84
2023-04-10T08:33:59.047Z,38.20
2023-04-10T08:36:28.118Z,37.09
2023-04-10T08:38:56.380Z,36.44
2023-04-10T08:41:24.685Z,36.83
2023-04-10T08:43:53.077Z,37.10
2023-04-10T08:46:24.744Z,36.37
2023-04-10T08:49:03.859Z,37.13
2023-04-10T08:51:38.188Z,35.98
2023-04-10T08:54:08.313Z,35.92
2023-04-10T08:56:39.042Z,37.31
2023-04-10T08:59:08.301Z,35.63
2023-04-10T09:01:36.910Z,34.73
2023-04-10T09:04:05.935Z,35.14
2023-04-10T09:06:34.255Z,35.61
2023-04-10T09:09:02.995Z,34.95
2023-04-10T09:12:01.242Z,36.03
2023-04-10T09:14:29.706Z,35.90
2023-04-10T09:17:16.469Z,35.72
2023-04-10T09:19:46.824Z,36.22
2023-04-10T09:22:16.395Z,36.64
2023-04-10T09:24:46.640Z,36.42
2023-04-10T09:27:37.600Z,35.25
2023-04-10T09:30:07.291Z,35.21
2023-04-10T09:32:38.796Z,33.97
2023-04-10T09:35:08.693Z,34.74
2023-04-10T09:37:37.963Z,34.79
2023-04-10T09:40:06.993Z,34.47
2023-04-10T09:42:37.726Z,33.38
2023-04-10T09:45:06.677Z,33.16
2023-04-10T09:47:34.989Z,32.38
2023-04-10T09:50:03.845Z,32.57
2023-04-10T09:52:35.080Z,32.80
2023-04-10T09:55:05.414Z,32.93
2023-04-10T09:57:35.058Z,32.79
2023-04-10T10:00:09.602Z,32.83
2023-04-10T10:02:42.352Z,33.83
2023-04-10T10:05:11.683Z,33.12
2023-04-10T10:07:40.135Z,30.95
2023-04-10T10:10:11.556Z,29.83
2023-04-10T10:12:50.790Z,30.84
2023-04-10T10:15:50.006Z,31.08
2023-04-10T10:18:27.725Z,31.19
2023-04-10T10:20:57.125Z,30.61
2023-04-10T10:23:26.705Z,31.04
2023-04-10T10:25:56.677Z,31.34
2023-04-10T10:28:28.306Z,31.49
2023-04-10T10:30:56.965Z,31.27
2023-04-10T10:33:26.476Z,31.08
2023-04-10T10:36:00.608Z,31.25
2023-04-10T10:38:28.980Z,31.81
2023-04-10T10:41:13.114Z,32.46
2023-04-10T10:44:02.086Z,32.06
2023-04-10T10:46:43.645Z,32.12
2023-04-10T10:49:12.111Z,31.82
2023-04-10T10:51:51.410Z,31.56
2023-04-10T10:54:34.564Z,32.33
2023-04-10T10:57:06.677Z,31.71
2023-04-10T10:59:55.852Z,31.11
2023-04-10T11:02:24.674Z,31.67
2023-04-10T11:04:53.011Z,31.95
2023-04-10T11:07:21.899Z,31.24
2023-04-10T11:09:53.763Z,30.80
2023-04-10T11:12:26.331Z,30.23
2023-04-10T11:15:03.383Z,30.24
2023-04-10T11:17:52.652Z,30.75
2023-04-10T11:20:27.506Z,30.85
2023-04-10T11:23:12.074Z,29.52
2023-04-10T11:25:52.442Z,29.84
2023-04-10T11:28:40.893Z,30.21
2023-04-10T11:31:23.617Z,29.95
2023-04-10T11:33:58.845Z,30.53
2023-04-10T11:36:27.743Z,31.77
2023-04-10T11:39:00.104Z,32.03
2023-04-10T11:41:30.825Z,31.13
2023-04-10T11:44:01.411Z,31.84
2023-04-10T11:46:31.345Z,31.86
2023-04-10T11:49:01.728Z,31.71
2023-04-10T11:51:31.718Z,32.17
2023-04-10T11:54:20.480Z,33.36
2023-04-10T11:56:58.687Z,33.31
2023-04-10T11:59:28.208Z,32.01
2023-04-10T12:02:12.026Z,32.31
2023-04-10T12:04:41.966Z,31.27
2023-04-10T12:07:11.253Z,31.78
2023-04-10T12:09:39.629Z,32.23
2023-04-10T12:12:08.500Z,31.65
2023-04-10T12:14:39.594Z,30.77
2023-04-10T12:17:10.551Z,31.16
2023-04-10T12:19:41.542Z,31.00
2023-04-10T12:22:13.093Z,31.17
2023-04-10T12:24:43.775Z,31.17
2023-04-10T12:27:26.970Z,31.30
2023-04-10T12:29:57.226Z,31.84
2023-04-10T12:32:27.738Z,30.84
2023-04-10T12:34:57.945Z,31.14
2023-04-10T12:37:49.367Z,31.17
2023-04-10T12:40:18.358Z,31.38
2023-04-10T12:42:47.460Z,31.29
2023-04-10T12:45:15.774Z,31.16
2023-04-10T12:47:51.881Z,31.33
2023-04-10T12:50:24.464Z,31.74
2023-04-10T12:53:05.028Z,31.79
2023-04-10T12:55:33.414Z,32.49
2023-04-10T12:58:20.332Z,32.73
2023-04-10T13:00:49.934Z,32.83
2023-04-10T13:03:18.564Z,33.46
2023-04-10T13:05:47.270Z,33.58
2023-04-10T13:08:15.479Z,33.10
2023-04-10T13:10:43.980Z,33.16
2023-04-10T13:13:13.248Z,33.48
2023-04-10T13:15:41.868Z,34.08
2023-04-10T13:18:13.620Z,34.28
2023-04-10T13:20:42.279Z,34.57
2023-04-10T13:23:10.511Z,34.23
2023-04-10T13:25:40.771Z,34.17
2023-04-10T13:28:12.010Z,34.91
2023-04-10T13:30:41.841Z,35.27
2023-04-10T13:33:10.484Z,35.36
2023-04-10T13:35:40.326Z,35.06
2023-04-10T13:38:09.731Z,34.59
2023-04-10T13:40:38.130Z,35.43
2023-04-10T13:43:06.807Z,35.25
2023-04-10T13:45:35.598Z,35.44
2023-04-10T13:48:04.237Z,35.64
2023-04-10T13:50:33.976Z,35.74
2023-04-10T13:53:02.391Z,35.71
2023-04-10T13:55:30.803Z,35.76
2023-04-10T13:57:59.237Z,35.67
2023-04-10T14:00:27.935Z,35.65
2023-04-10T14:02:56.578Z,35.84
2023-04-10T14:05:24.989Z,35.78
2023-04-10T14:07:57.059Z,36.10
2023-04-10T14:10:25.337Z,36.32
2023-04-10T14:12:53.707Z,36.50
2023-04-10T14:15:21.891Z,36.19
2023-04-10T14:17:50.174Z,35.97
2023-04-10T14:20:18.335Z,36.40
2023-04-10T14:22:47.974Z,36.88
2023-04-10T14:25:16.836Z,37.30
2023-04-10T14:27:45.818Z,37.30
2023-04-10T14:30:14.197Z,37.54
2023-04-10T14:32:44.018Z,37.78
2023-04-10T14:35:12.334Z,37.75
2023-04-10T14:37:42.614Z,38.04
2023-04-10T14:40:11.201Z,38.10
2023-04-10T14:42:39.475Z,38.05
2023-04-10T14:45:08.703Z,38.22
2023-04-10T14:47:36.984Z,37.91
2023-04-10T14:50:06.356Z,38.31
2023-04-10T14:52:34.487Z,38.88
2023-04-10T14:55:03.115Z,38.81
2023-04-10T14:57:31.603Z,39.01
2023-04-10T15:00:01.609Z,39.13
2023-04-10T15:02:30.789Z,39.22
2023-04-10T15:04:59.145Z,39.28
2023-04-10T15:07:30.649Z,39.24
2023-04-10T15:09:59.247Z,39.54
2023-04-10T15:12:27.609Z,40.01
2023-04-10T15:14:55.783Z,39.84
2023-04-10T15:17:24.505Z,39.94
2023-04-10T15:19:52.845Z,39.70
2023-04-10T15:22:21.023Z,39.60
2023-04-10T15:24:50.863Z,39.74
2023-04-10T15:27:21.519Z,40.02
2023-04-10T15:29:49.751Z,40.13
2023-04-10T15:32:18.510Z,40.35
2023-04-10T15:34:46.807Z,40.73
2023-04-10T15:37:15.185Z,40.81
2023-04-10T15:39:43.663Z,41.07
2023-04-10T15:42:11.843Z,41.19
2023-04-10T15:44:40.060Z,41.28
2023-04-10T15:47:08.285Z,41.42
2023-04-10T15:49:38.681Z,41.54
2023-04-10T15:52:07.560Z,41.73
2023-04-10T15:54:36.036Z,41.76
2023-04-10T15:57:04.386Z,41.95
2023-04-10T15:59:33.696Z,42.26
2023-04-10T16:02:02.439Z,42.46
2023-04-10T16:04:31.519Z,42.59
2023-04-10T16:07:00.036Z,42.84
2023-04-10T16:09:28.881Z,43.20
2023-04-10T16:11:57.955Z,43.43
2023-04-10T16:14:26.407Z,43.86
2023-04-10T16:16:54.886Z,44.06
2023-04-10T16:19:23.832Z,44.49
2023-04-10T16:21:52.071Z,45.18
2023-04-10T16:24:20.328Z,45.54
2023-04-10T16:26:50.080Z,46.29
2023-04-10T16:29:20.583Z,46.86
2023-04-10T16:31:48.975Z,47.47
2023-04-10T16:34:17.433Z,47.99
2023-04-10T16:36:45.704Z,48.74
2023-04-10T16:39:13.987Z,48.84
2023-04-10T16:41:42.199Z,49.19
2023-04-10T16:44:10.637Z,49.71
2023-04-10T16:46:39.008Z,50.64
2023-04-10T16:49:07.292Z,50.69
2023-04-10T16:51:35.476Z,50.89
2023-04-10T16:54:04.085Z,51.69
2023-04-10T16:56:33.047Z,51.77
2023-04-10T16:59:01.322Z,51.73
2023-04-10T17:01:29.539Z,52.13
2023-04-10T17:03:57.833Z,52.37
2023-04-10T17:06:27.140Z,52.87
2023-04-10T17:08:55.650Z,52.91
2023-04-10T17:11:24.144Z,53.03
2023-04-10T17:13:52.621Z,53.52
2023-04-10T17:16:20.914Z,54.45
2023-04-10T17:18:50.402Z,54.47
2023-04-10T17:21:18.891Z,54.61
2023-04-10T17:23:47.064Z,54.80
2023-04-10T17:26:16.977Z,55.37
2023-04-10T17:28:46.518Z,56.29
2023-04-10T17:31:17.207Z,56.04
2023-04-10T17:33:45.696Z,56.94
2023-04-10T17:36:14.946Z,56.88
2023-04-10T17:38:43.688Z,56.96
2023-04-10T17:41:15.210Z,57.87
2023-04-10T17:43:43.519Z,57.82
2023-04-10T17:46:15.538Z,57.81
2023-04-10T17:48:44.740Z,57.68
2023-04-10T17:51:13.974Z,58.31
2023-04-10T17:53:42.370Z,59.30
2023-04-10T17:56:21.152Z,59.68
2023-04-10T17:58:49.459Z,59.94
2023-04-10T18:01:26.126Z,59.74
2023-04-10T18:03:54.484Z,59.90
2023-04-10T18:06:22.806Z,60.55
2023-04-10T18:08:50.971Z,60.38
2023-04-10T18:11:19.241Z,60.39
2023-04-10T18:13:47.929Z,60.48
2023-04-10T18:16:17.617Z,60.54
2023-04-10T18:18:46.331Z,60.58
2023-04-10T18:21:15.617Z,60.97
2023-04-10T18:23:44.767Z,61.03
2023-04-10T18:26:13.522Z,62.03
2023-04-10T18:28:43.318Z,62.48
2023-04-10T18:31:14.863Z,62.68
2023-04-10T18:33:43.506Z,62.95
2023-04-10T18:36:14.191Z,63.13
2023-04-10T18:38:44.138Z,63.43
2023-04-10T18:41:15.361Z,62.95
2023-04-10T18:43:48.828Z,63.53
2023-04-10T18:46:28.258Z,63.44
2023-04-10T18:48:56.801Z,63.66
2023-04-10T18:51:25.188Z,64.50
2023-04-10T18:53:53.895Z,63.94
2023-04-10T18:56:25.053Z,63.64
2023-04-10T18:58:53.219Z,63.92
2023-04-10T19:01:21.456Z,64.36
2023-04-10T19:03:54.828Z,64.47
2023-04-10T19:06:24.136Z,64.98
2023-04-10T19:08:52.338Z,64.98
2023-04-10T19:11:21.345Z,65.25
2023-04-10T19:13:49.700Z,65.31
2023-04-10T19:16:19.683Z,65.49
2023-04-10T19:18:48.276Z,65.71
2023-04-10T19:21:16.554Z,65.84
2023-04-10T19:23:45.154Z,65.93
2023-04-10T19:26:14.454Z,65.83
2023-04-10T19:28:43.505Z,65.97
2023-04-10T19:31:11.930Z,66.19
2023-04-10T19:33:40.081Z,66.28
2023-04-10T19:36:08.827Z,67.03
2023-04-10T19:38:37.149Z,66.71
2023-04-10T19:41:13.729Z,66.83
2023-04-10T19:43:42.141Z,66.89
2023-04-10T19:46:20.979Z,67.46
2023-04-10T19:48:49.621Z,68.03
2023-04-10T19:51:18.203Z,68.83
2023-04-10T19:53:46.569Z,68.36
2023-04-10T19:56:16.689Z,68.86
2023-04-10T19:58:55.997Z,69.67
2023-04-10T20:01:24.730Z,69.86
2023-04-10T20:03:53.555Z,70.33
2023-04-10T20:06:22.504Z,70.08
2023-04-10T20:08:51.178Z,70.57
2023-04-10T20:11:19.252Z,70.16
2023-04-10T20:13:47.742Z,70.06
2023-04-10T20:16:16.626Z,71.15
2023-04-10T20:18:44.898Z,71.01
2023-04-10T20:21:12.956Z,70.57
2023-04-10T20:23:41.051Z,70.56
2023-04-10T20:26:13.163Z,70.88
2023-04-10T20:28:41.798Z,71.02
2023-04-10T20:31:11.110Z,70.86
2023-04-10T20:33:39.577Z,70.71
2023-04-10T20:36:08.396Z,70.97
2023-04-10T20:38:37.052Z,71.06
2023-04-10T20:41:05.664Z,71.35
2023-04-10T20:43:34.451Z,70.83
2023-04-10T20:46:08.101Z,70.60
2023-04-10T20:48:38.120Z,70.66
2023-04-10T20:51:07.323Z,70.48
2023-04-10T20:53:35.727Z,70.57
2023-04-10T20:56:06.202Z,70.48
2023-04-10T20:58:34.823Z,70.51
2023-04-10T21:01:03.047Z,70.66
2023-04-10T21:03:32.342Z,70.38
2023-04-10T21:06:04.384Z,70.20
2023-04-10T21:08:32.676Z,70.51
2023-04-10T21:11:01.116Z,70.63
2023-04-10T21:13:29.521Z,70.44
2023-04-10T21:15:57.912Z,70.89
2023-04-10T21:18:26.386Z,71.22
2023-04-10T21:20:54.759Z,71.27
2023-04-10T21:23:22.803Z,71.74
2023-04-10T21:25:54.440Z,72.37
2023-04-10T21:28:22.637Z,72.47
2023-04-10T21:30:50.764Z,72.86
2023-04-10T21:33:19.016Z,73.24
2023-04-10T21:35:48.098Z,73.33
2023-04-10T21:38:16.281Z,74.42
2023-04-10T21:40:51.589Z,74.43
2023-04-10T21:43:22.780Z,74.69
2023-04-10T21:45:51.197Z,74.42
2023-04-10T21:48:22.398Z,74.84
2023-04-10T21:50:51.424Z,75.88
2023-04-10T21:53:19.732Z,76.88
2023-04-10T21:55:47.884Z,76.02
2023-04-10T21:58:16.467Z,76.22
2023-04-10T22:00:47.384Z,76.62
2023-04-10T22:03:20.549Z,77.57
2023-04-10T22:05:50.571Z,78.18
2023-04-10T22:08:20.311Z,77.91
2023-04-10T22:10:48.666Z,77.60
2023-04-10T22:13:29.483Z,77.67
2023-04-10T22:15:59.986Z,78.25
2023-04-10T22:18:28.346Z,78.77
2023-04-10T22:20:56.819Z,79.10
2023-04-10T22:23:25.406Z,78.55
2023-04-10T22:25:53.885Z,79.28
2023-04-10T22:28:22.575Z,79.46
2023-04-10T22:30:50.952Z,79.17
2023-04-10T22:33:19.245Z,79.35
2023-04-10T22:35:47.460Z,79.75
2023-04-10T22:38:15.788Z,79.74
2023-04-10T22:40:44.364Z,80.04
2023-04-10T22:43:13.357Z,80.47
2023-04-10T22:45:42.249Z,80.27
2023-04-10T22:48:10.465Z,80.03
2023-04-10T22:50:38.807Z,80.18
2023-04-10T22:53:07.293Z,80.47
2023-04-10T22:55:38.331Z,80.47
2023-04-10T22:58:07.538Z,80.44
2023-04-10T23:00:36.003Z,80.53
2023-04-10T23:03:07.029Z,81.07
2023-04-10T23:05:35.382Z,81.12
2023-04-10T23:08:03.531Z,81.74
2023-04-10T23:10:31.774Z,81.80
2023-04-10T23:13:00.048Z,82.33
2023-04-10T23:15:28.228Z,82.49
2023-04-10T23:17:57.549Z,82.22
2023-04-10T23:20:26.627Z,82.58
2023-04-10T23:22:57.906Z,82.48
2023-04-10T23:25:26.136Z,82.54
2023-04-10T23:27:54.409Z,82.22
2023-04-10T23:30:22.535Z,82.03
2023-04-10T23:32:50.830Z,82.19
2023-04-10T23:35:19.037Z,82.01
2023-04-10T23:37:47.326Z,81.71
2023-04-10T23:40:15.910Z,81.82
2023-04-10T23:42:44.561Z,81.82
2023-04-10T23:45:13.649Z,81.80
2023-04-10T23:47:41.892Z,81.73
2023-04-10T23:50:10.860Z,81.84
2023-04-10T23:52:39.309Z,81.64
2023-04-10T23:55:07.978Z,81.76
2023-04-10T23:57:36.044Z,81.84
